createdAt,value
2024-02-11T00:00:22.259Z,5.25
2024-02-11T00:03:28.743Z,5.38
2024-02-11T00:06:32.598Z,4.70
2024-02-11T00:09:37.499Z,5.87
2024-02-11T00:12:41.386Z,4.93
2024-02-11T00:15:46.085Z,5.25
2024-02-11T00:18:49.880Z,5.60
2024-02-11T00:21:53.354Z,5.15
2024-02-11T00:26:32.143Z,5.65
2024-02-11T00:29:35.563Z,5.28
2024-02-11T00:32:39.788Z,4.97
2024-02-11T00:35:43.768Z,5.32
2024-02-11T00:38:47.135Z,4.78
2024-02-11T00:41:51.803Z,4.03
2024-02-11T00:44:55.322Z,3.97
2024-02-11T00:48:01.259Z,4.03
2024-02-11T00:51:04.879Z,4.57
2024-02-11T00:54:08.346Z,4.30
2024-02-11T00:57:13.220Z,3.75
2024-02-11T01:00:16.838Z,4.22
2024-02-11T01:03:20.252Z,3.90
2024-02-11T01:06:23.719Z,3.80
2024-02-11T01:09:27.351Z,4.13
2024-02-11T01:12:32.342Z,4.05
2024-02-11T01:15:37.410Z,4.00
2024-02-11T01:18:40.849Z,4.00
2024-02-11T01:21:45.353Z,3.67
2024-02-11T01:24:48.542Z,4.05
2024-02-11T01:27:53.313Z,4.10
2024-02-11T01:30:56.749Z,4.07
2024-02-11T01:34:00.274Z,3.97
2024-02-11T01:37:05.759Z,4.00
2024-02-11T01:40:14.932Z,3.83
2024-02-11T01:43:19.620Z,3.95
2024-02-11T01:46:23.560Z,3.47
2024-02-11T01:49:27.337Z,3.75
2024-02-11T01:52:31.000Z,3.47
2024-02-11T01:55:35.625Z,3.00
2024-02-11T01:58:43.619Z,3.50
2024-02-11T02:01:47.222Z,3.97
2024-02-11T02:04:53.598Z,3.80
2024-02-11T02:07:58.910Z,4.05
2024-02-11T02:11:02.164Z,3.88
2024-02-11T02:14:07.165Z,3.97
2024-02-11T02:17:11.114Z,3.17
2024-02-11T02:20:15.812Z,3.40
2024-02-11T02:23:20.930Z,3.35
2024-02-11T02:26:24.872Z,4.15
2024-02-11T02:29:28.119Z,3.72
2024-02-11T02:32:31.423Z,3.97
2024-02-11T02:35:35.857Z,3.53
2024-02-11T02:38:40.742Z,3.60
2024-02-11T02:41:44.379Z,3.85
2024-02-11T02:44:47.967Z,3.85
2024-02-11T02:47:51.661Z,3.45
2024-02-11T02:50:55.386Z,3.25
2024-02-11T02:54:03.612Z,3.63
2024-02-11T02:57:09.209Z,3.97
2024-02-11T03:00:13.755Z,3.80
2024-02-11T03:03:20.973Z,4.25
2024-02-11T03:06:24.434Z,4.13
2024-02-11T03:09:29.438Z,3.70
2024-02-11T03:12:32.808Z,4.28
2024-02-11T03:15:36.033Z,3.40
2024-02-11T03:18:42.869Z,3.57
2024-02-11T03:21:53.754Z,3.92
2024-02-11T03:25:02.727Z,4.32
2024-02-11T03:28:06.812Z,3.72
2024-02-11T03:34:32.662Z,3.88
2024-02-11T03:37:36.329Z,3.47
2024-02-11T03:40:40.342Z,4.15
2024-02-11T03:43:44.528Z,4.05
2024-02-11T03:46:48.585Z,4.07
2024-02-11T03:49:55.794Z,4.07
2024-02-11T03:52:59.426Z,4.15
2024-02-11T03:56:06.371Z,3.80
2024-02-11T03:59:12.297Z,3.63
2024-02-11T04:02:15.724Z,3.33
2024-02-11T04:05:21.697Z,4.20
2024-02-11T04:08:25.904Z,3.58
2024-02-11T04:14:33.350Z,3.88
2024-02-11T04:17:37.439Z,3.70
2024-02-11T04:24:07.123Z,3.92
2024-02-11T04:27:12.605Z,3.45
2024-02-11T04:30:20.849Z,4.05
2024-02-11T04:33:24.351Z,4.38
2024-02-11T04:36:28.062Z,3.85
2024-02-11T04:39:32.854Z,4.03
2024-02-11T04:42:41.858Z,4.13
2024-02-11T04:45:45.353Z,3.75
2024-02-11T04:48:50.618Z,4.38
2024-02-11T04:51:54.050Z,3.85
2024-02-11T04:55:20.712Z,4.82
2024-02-11T04:58:27.862Z,3.20
2024-02-11T05:01:31.203Z,3.53
2024-02-11T05:04:34.572Z,4.00
2024-02-11T05:07:37.896Z,3.60
2024-02-11T05:10:44.856Z,4.28
2024-02-11T05:13:49.835Z,3.78
2024-02-11T05:16:53.855Z,3.95
2024-02-11T05:23:01.677Z,3.42
2024-02-11T05:26:10.946Z,4.03
2024-02-11T05:29:15.647Z,3.88
2024-02-11T05:32:21.659Z,3.30
2024-02-11T05:35:25.674Z,4.22
2024-02-11T05:38:33.394Z,3.70
2024-02-11T05:41:39.476Z,3.88
2024-02-11T05:44:45.598Z,3.70
2024-02-11T05:47:49.402Z,4.10
2024-02-11T05:50:52.887Z,3.70
2024-02-11T05:53:56.610Z,3.47
2024-02-11T05:57:01.466Z,4.50
2024-02-11T06:00:12.955Z,4.57
2024-02-11T06:03:21.500Z,3.35
2024-02-11T06:06:47.587Z,3.30
2024-02-11T06:09:50.851Z,3.70
2024-02-11T06:12:56.596Z,3.05
2024-02-11T06:16:00.131Z,2.83
2024-02-11T06:19:05.936Z,2.88
2024-02-11T06:22:11.106Z,3.40
2024-02-11T06:25:15.328Z,3.33
2024-02-11T06:28:18.748Z,3.53
2024-02-11T06:31:22.818Z,2.67
2024-02-11T06:34:28.100Z,2.53
2024-02-11T06:37:33.590Z,2.20
2024-02-11T06:40:37.244Z,2.30
2024-02-11T06:43:41.352Z,2.92
2024-02-11T06:49:48.632Z,2.33
2024-02-11T06:52:53.434Z,2.50
2024-02-11T06:55:57.863Z,2.30
2024-02-11T06:59:01.345Z,2.63
2024-02-11T07:02:06.164Z,2.17
2024-02-11T07:05:11.709Z,2.60
2024-02-11T07:08:17.141Z,2.50
2024-02-11T07:11:20.339Z,2.55
2024-02-11T07:14:24.600Z,2.70
2024-02-11T07:17:31.495Z,2.60
2024-02-11T07:20:35.053Z,2.65
2024-02-11T07:23:40.071Z,2.60
2024-02-11T07:26:43.631Z,2.92
2024-02-11T07:29:47.240Z,2.38
2024-02-11T07:32:50.919Z,2.40
2024-02-11T07:35:54.158Z,3.15
2024-02-11T07:38:58.834Z,3.10
2024-02-11T07:42:02.767Z,3.03
2024-02-11T07:45:06.840Z,2.85
2024-02-11T07:51:15.344Z,3.15
2024-02-11T07:54:21.671Z,3.72
2024-02-11T07:57:27.429Z,3.25
2024-02-11T08:00:32.593Z,3.85
2024-02-11T08:03:36.544Z,2.92
2024-02-11T08:06:40.580Z,2.85
2024-02-11T08:09:45.869Z,3.08
2024-02-11T08:12:49.505Z,3.50
2024-02-11T08:15:53.028Z,3.08
2024-02-11T08:18:56.822Z,3.33
2024-02-11T08:22:00.331Z,3.03
2024-02-11T08:25:06.039Z,2.63
2024-02-11T08:28:11.216Z,2.75
2024-02-11T08:31:15.378Z,3.63
2024-02-11T08:37:22.209Z,3.30
2024-02-11T08:40:26.958Z,3.08
2024-02-11T08:43:31.028Z,3.47
2024-02-11T08:49:38.279Z,2.70
2024-02-11T08:52:41.792Z,3.03
2024-02-11T08:55:47.278Z,3.20
2024-02-11T08:58:50.708Z,2.83
2024-02-11T09:01:54.829Z,2.60
2024-02-11T09:08:03.436Z,2.60
2024-02-11T09:11:10.496Z,3.22
2024-02-11T09:14:14.515Z,2.63
2024-02-11T09:17:18.521Z,3.10
2024-02-11T09:23:26.733Z,3.30
2024-02-11T09:26:32.021Z,2.70
2024-02-11T09:29:35.652Z,2.80
2024-02-11T09:32:39.339Z,2.50
2024-02-11T09:35:42.963Z,3.30
2024-02-11T09:38:47.235Z,3.08
2024-02-11T09:41:52.458Z,3.55
2024-02-11T09:44:55.965Z,3.40
2024-02-11T09:48:01.669Z,3.95
2024-02-11T09:51:08.084Z,3.72
2024-02-11T09:54:12.941Z,3.45
2024-02-11T09:57:17.757Z,3.20
2024-02-11T10:00:22.564Z,3.53
2024-02-11T10:03:29.817Z,3.67
2024-02-11T10:06:38.056Z,3.22
2024-02-11T10:09:41.485Z,3.92
2024-02-11T10:12:48.991Z,4.03
2024-02-11T10:15:54.373Z,4.18
2024-02-11T10:19:00.426Z,4.07
2024-02-11T10:22:14.746Z,3.35
2024-02-11T10:25:29.887Z,3.97
2024-02-11T10:28:38.353Z,3.63
2024-02-11T10:31:43.693Z,4.38
2024-02-11T10:34:48.268Z,4.35
2024-02-11T10:37:54.724Z,4.30
2024-02-11T10:40:59.769Z,4.22
2024-02-11T10:44:06.293Z,3.83
2024-02-11T10:47:10.381Z,4.47
2024-02-11T10:53:19.288Z,3.53
2024-02-11T10:56:25.821Z,4.18
2024-02-11T10:59:38.897Z,3.65
2024-02-11T11:02:45.737Z,4.07
2024-02-11T11:06:15.687Z,3.90
2024-02-11T11:09:20.103Z,3.47
2024-02-11T11:12:26.022Z,3.70
2024-02-11T11:15:33.174Z,3.38
2024-02-11T11:18:38.794Z,3.50
2024-02-11T11:21:55.522Z,3.00
2024-02-11T11:25:20.363Z,3.25
2024-02-11T11:28:31.627Z,3.10
2024-02-11T11:31:36.202Z,2.70
2024-02-11T11:34:40.012Z,3.33
2024-02-11T11:37:44.246Z,2.70
2024-02-11T11:40:55.761Z,3.13
2024-02-11T11:44:01.768Z,2.70
2024-02-11T11:47:07.088Z,2.88
2024-02-11T11:50:11.311Z,2.75
2024-02-11T11:56:26.018Z,2.42
2024-02-11T11:59:31.225Z,2.78
2024-02-11T12:02:36.709Z,3.13
2024-02-11T12:05:40.275Z,2.75
2024-02-11T12:08:44.027Z,2.25
2024-02-11T12:11:49.901Z,1.80
2024-02-11T12:16:35.035Z,2.42
2024-02-11T12:19:40.247Z,2.17
2024-02-11T12:22:44.123Z,2.25
2024-02-11T12:25:53.972Z,3.35
2024-02-11T12:29:00.281Z,3.85
2024-02-11T12:32:07.173Z,3.08
2024-02-11T12:35:11.487Z,2.80
2024-02-11T12:38:15.814Z,3.00
2024-02-11T12:44:23.746Z,2.70
2024-02-11T12:47:30.650Z,2.70
2024-02-11T12:50:34.524Z,2.55
2024-02-11T12:53:39.655Z,2.72
2024-02-11T12:56:43.212Z,2.90
2024-02-11T12:59:46.516Z,2.75
2024-02-11T13:02:52.711Z,2.53
2024-02-11T13:05:56.563Z,2.70
2024-02-11T13:09:00.218Z,2.90
2024-02-11T13:12:05.357Z,2.78
2024-02-11T13:15:11.454Z,2.53
2024-02-11T13:18:17.362Z,2.80
2024-02-11T13:21:22.026Z,3.10
2024-02-11T13:24:25.950Z,3.30
2024-02-11T13:27:29.777Z,3.08
2024-02-11T13:30:34.844Z,2.88
2024-02-11T13:36:43.905Z,3.13
2024-02-11T13:39:48.493Z,3.35
2024-02-11T13:42:52.257Z,2.83
2024-02-11T13:45:57.216Z,2.60
2024-02-11T13:49:02.060Z,3.47
2024-02-11T13:52:08.239Z,3.80
2024-02-11T13:55:12.610Z,3.58
2024-02-11T13:58:16.414Z,3.00
2024-02-11T14:01:20.336Z,2.88
2024-02-11T14:04:26.460Z,3.13
2024-02-11T14:07:30.255Z,3.53
2024-02-11T14:10:34.252Z,3.35
2024-02-11T14:13:37.954Z,3.53
2024-02-11T14:16:42.177Z,3.20
2024-02-11T14:19:47.235Z,3.50
2024-02-11T14:22:50.851Z,3.45
2024-02-11T14:25:54.535Z,3.38
2024-02-11T14:28:58.913Z,3.50
2024-02-11T14:32:04.651Z,3.55
2024-02-11T14:35:13.626Z,3.13
2024-02-11T14:38:17.501Z,3.40
2024-02-11T14:41:24.098Z,3.60
2024-02-11T14:44:27.450Z,3.40
2024-02-11T14:47:33.167Z,3.55
2024-02-11T14:50:39.808Z,3.13
2024-02-11T14:53:44.054Z,3.95
2024-02-11T14:56:47.494Z,3.40
2024-02-11T14:59:53.625Z,3.67
2024-02-11T15:02:56.995Z,3.10
2024-02-11T15:06:05.458Z,3.70
2024-02-11T15:09:10.113Z,3.33
2024-02-11T15:12:13.724Z,3.42
2024-02-11T15:15:17.749Z,3.47
2024-02-11T15:18:21.033Z,3.75
2024-02-11T15:21:27.201Z,3.17
2024-02-11T15:24:31.455Z,3.10
2024-02-11T15:27:38.547Z,3.40
2024-02-11T15:30:42.364Z,3.53
2024-02-11T15:33:48.458Z,3.80
2024-02-11T15:36:53.446Z,3.90
2024-02-11T15:39:56.931Z,3.58
2024-02-11T15:43:01.013Z,3.80
2024-02-11T15:49:08.118Z,3.30
2024-02-11T15:52:13.220Z,3.03
2024-02-11T15:55:17.858Z,3.15
2024-02-11T15:58:22.479Z,3.13
2024-02-11T16:01:26.263Z,3.50
2024-02-11T16:04:29.741Z,3.22
2024-02-11T16:07:35.738Z,3.20
2024-02-11T16:10:39.462Z,3.75
2024-02-11T16:13:44.476Z,4.38
2024-02-11T16:16:49.283Z,3.50
2024-02-11T16:19:53.011Z,4.00
2024-02-11T16:22:58.900Z,3.05
2024-02-11T16:26:04.023Z,3.60
2024-02-11T16:29:07.445Z,3.40
2024-02-11T16:32:12.329Z,3.80
2024-02-11T16:35:20.199Z,3.20
2024-02-11T16:38:25.427Z,3.63
2024-02-11T16:41:29.244Z,3.60
2024-02-11T16:44:32.681Z,3.42
2024-02-11T16:47:38.461Z,3.43
2024-02-11T16:50:42.099Z,3.45
2024-02-11T16:53:47.001Z,2.97
2024-02-11T16:56:50.466Z,3.40
2024-02-11T16:59:55.262Z,2.67
2024-02-11T17:02:58.864Z,3.33
2024-02-11T17:06:02.501Z,3.17
2024-02-11T17:09:07.288Z,3.38
2024-02-11T17:12:11.246Z,3.40
2024-02-11T17:15:14.689Z,3.60
2024-02-11T17:18:18.249Z,2.70
2024-02-11T17:21:21.858Z,3.05
2024-02-11T17:24:27.236Z,2.72
2024-02-11T17:27:30.753Z,3.25
2024-02-11T17:30:35.975Z,3.00
2024-02-11T17:33:39.644Z,3.00
2024-02-11T17:36:44.199Z,3.42
2024-02-11T17:39:49.668Z,2.78
2024-02-11T17:42:53.290Z,2.65
2024-02-11T17:45:57.941Z,2.85
2024-02-11T17:49:04.126Z,2.55
2024-02-11T17:52:09.792Z,3.05
2024-02-11T17:55:15.796Z,2.35
2024-02-11T17:58:19.184Z,3.03
2024-02-11T18:01:23.877Z,2.37
2024-02-11T18:04:32.371Z,3.28
2024-02-11T18:07:39.239Z,2.72
2024-02-11T18:10:44.440Z,3.13
2024-02-11T18:13:47.990Z,3.40
2024-02-11T18:16:54.816Z,2.70
2024-02-11T18:19:58.508Z,3.35
2024-02-11T18:23:02.077Z,3.47
2024-02-11T18:26:10.468Z,2.90
2024-02-11T18:29:17.336Z,3.05
2024-02-11T18:32:22.755Z,3.25
2024-02-11T18:35:26.245Z,3.53
2024-02-11T18:38:32.719Z,3.43
2024-02-11T18:41:39.147Z,3.03
2024-02-11T18:44:42.499Z,2.88
2024-02-11T18:47:45.942Z,3.63
2024-02-11T18:50:49.281Z,3.65
2024-02-11T18:53:53.969Z,3.30
2024-02-11T18:56:58.709Z,2.90
2024-02-11T19:00:02.172Z,3.70
2024-02-11T19:03:06.261Z,3.25
2024-02-11T19:06:10.291Z,3.30
2024-02-11T19:09:14.160Z,2.90
2024-02-11T19:12:19.236Z,2.50
2024-02-11T19:15:23.146Z,3.08
2024-02-11T19:18:26.959Z,3.20
2024-02-11T19:21:31.728Z,3.05
2024-02-11T19:24:35.112Z,3.17
2024-02-11T19:27:39.846Z,2.57
2024-02-11T19:30:44.727Z,2.58
2024-02-11T19:33:49.862Z,2.83
2024-02-11T19:36:53.183Z,2.70
2024-02-11T19:39:56.433Z,3.20
2024-02-11T19:43:02.020Z,2.83
2024-02-11T19:46:05.998Z,3.28
2024-02-11T19:49:10.380Z,3.63
2024-02-11T19:52:14.467Z,3.33
2024-02-11T19:55:18.084Z,3.20
2024-02-11T19:58:24.457Z,3.28
2024-02-11T20:01:28.760Z,3.30
2024-02-11T20:07:37.861Z,2.65
2024-02-11T20:10:41.784Z,3.45
2024-02-11T20:13:47.083Z,3.20
2024-02-11T20:16:50.690Z,2.78
2024-02-11T20:19:54.253Z,2.63
2024-02-11T20:22:57.794Z,3.10
2024-02-11T20:26:01.387Z,3.05
2024-02-11T20:29:06.696Z,3.22
2024-02-11T20:32:10.590Z,3.15
2024-02-11T20:35:15.846Z,2.53
2024-02-11T20:38:20.574Z,2.65
2024-02-11T20:41:25.124Z,2.42
2024-02-11T20:44:30.127Z,2.80
2024-02-11T20:47:34.913Z,2.28
2024-02-11T20:50:39.479Z,2.65
2024-02-11T20:53:45.311Z,2.25
2024-02-11T20:56:49.411Z,2.75
2024-02-11T21:02:57.274Z,2.80
2024-02-11T21:06:01.385Z,3.00
2024-02-11T21:12:10.994Z,2.60
2024-02-11T21:15:16.840Z,2.67
2024-02-11T21:18:39.239Z,2.58
2024-02-11T21:21:44.295Z,2.92
2024-02-11T21:24:47.982Z,3.05
2024-02-11T21:27:57.820Z,3.25
2024-02-11T21:31:08.857Z,2.90
2024-02-11T21:34:23.849Z,2.70
2024-02-11T21:37:28.397Z,2.72
2024-02-11T21:40:31.786Z,2.40
2024-02-11T21:43:35.383Z,2.58
2024-02-11T21:46:40.652Z,3.08
2024-02-11T21:49:45.365Z,2.45
2024-02-11T21:52:49.129Z,2.72
2024-02-11T21:55:52.691Z,2.85
2024-02-11T21:58:56.001Z,2.30
2024-02-11T22:02:03.105Z,2.37
2024-02-11T22:05:08.862Z,2.40
2024-02-11T22:08:12.208Z,2.42
2024-02-11T22:14:16.907Z,1.92
2024-02-11T22:17:22.843Z,2.45
2024-02-11T22:20:27.551Z,2.53
2024-02-11T22:23:31.002Z,2.20
2024-02-11T22:26:34.443Z,2.47
2024-02-11T22:29:38.043Z,2.67
2024-02-11T22:32:41.791Z,2.28
2024-02-11T22:35:46.957Z,2.58
2024-02-11T22:38:50.425Z,2.53
2024-02-11T22:41:53.774Z,2.57
2024-02-11T22:44:58.957Z,2.90
2024-02-11T22:48:04.680Z,2.40
2024-02-11T22:51:09.366Z,1.75
2024-02-11T22:54:15.247Z,2.10
2024-02-11T22:57:19.737Z,2.13
2024-02-11T23:00:40.635Z,2.80
2024-02-11T23:03:44.872Z,2.50
2024-02-11T23:09:53.453Z,2.65
2024-02-11T23:12:56.980Z,2.47
2024-02-11T23:16:01.022Z,2.60
2024-02-11T23:22:13.738Z,2.83
2024-02-11T23:25:17.498Z,2.42
2024-02-11T23:28:20.983Z,2.60
2024-02-11T23:31:25.279Z,2.72
2024-02-11T23:34:30.666Z,2.72
2024-02-11T23:37:36.438Z,2.60
2024-02-11T23:40:42.322Z,3.00
2024-02-11T23:43:46.885Z,3.47
2024-02-11T23:46:50.613Z,3.15
2024-02-11T23:49:54.177Z,2.70
2024-02-11T23:52:58.958Z,3.13
2024-02-11T23:56:02.793Z,3.08
2024-02-11T23:59:06.153Z,3.22
